Time;durP1;ratioP1;P1;durP2;ratioP2;P2;SDS_P1;SDS_P2;PMS_P1;PMS_P2;Temp;Humidity;BMP_temperature;BMP_pressure;BME280_temperature;BME280_humidity;BME280_pressure;Samples;Min_cycle;Max_cycle;Signal;HPM_P1;HPM_P2
2022/01/29 00:02:02;;;;;;;20.35;8.30;;;;;;;;;;5051828;28;20493;-64
2022/01/29 00:04:28;;;;;;;6.85;3.13;;;;;;;;;;5052343;28;20044;-64
2022/01/29 00:06:54;;;;;;;5.50;2.13;;;;;;;;;;5052548;28;20033;-64
2022/01/29 00:09:20;;;;;;;2.88;1.83;;;;;;;;;;5051620;28;20043;-64
2022/01/29 00:11:46;;;;;;;4.43;2.17;;;;;;;;;;5052296;28;20032;-64
2022/01/29 00:14:13;;;;;;;8.75;2.20;;;;;;;;;;5052024;28;20398;-64
2022/01/29 00:16:40;;;;;;;6.32;2.65;;;;;;;;;;5051517;28;20036;-63
2022/01/29 00:19:07;;;;;;;5.43;2.40;;;;;;;;;;5050920;28;20033;-64
2022/01/29 00:21:33;;;;;;;7.55;1.85;;;;;;;;;;5052321;28;20033;-64
2022/01/29 00:24:00;;;;;;;6.28;1.98;;;;;;;;;;5052121;28;20071;-64
2022/01/29 00:26:27;;;;;;;4.47;1.48;;;;;;;;;;5052053;28;20028;-64
2022/01/29 00:28:56;;;;;;;6.32;1.73;;;;;;;;;;5052341;28;20036;-64
2022/01/29 00:31:22;;;;;;;5.53;1.92;;;;;;;;;;5051716;28;20444;-64
2022/01/29 00:33:48;;;;;;;5.15;1.75;;;;;;;;;;5052249;28;20025;-64
2022/01/29 00:36:14;;;;;;;7.32;1.63;;;;;;;;;;5051393;28;20029;-64
2022/01/29 00:38:41;;;;;;;5.68;2.60;;;;;;;;;;5051824;28;20102;-64
2022/01/29 00:41:07;;;;;;;7.78;1.67;;;;;;;;;;5052294;28;20082;-64
2022/01/29 00:43:34;;;;;;;1.42;0.70;;;;;;;;;;5051773;28;20067;-64
2022/01/29 00:46:00;;;;;;;0.93;0.70;;;;;;;;;;5050985;28;20025;-64
2022/01/29 00:48:26;;;;;;;2.45;0.80;;;;;;;;;;5051789;28;20040;-64
2022/01/29 00:50:52;;;;;;;3.15;0.88;;;;;;;;;;5050482;28;20055;-64
2022/01/29 00:53:18;;;;;;;1.88;0.90;;;;;;;;;;5052050;28;20033;-64
2022/01/29 00:55:45;;;;;;;2.80;1.00;;;;;;;;;;5033357;28;20467;-64
2022/01/29 00:58:11;;;;;;;2.83;0.80;;;;;;;;;;5037706;28;20041;-64
2022/01/29 01:00:37;;;;;;;1.35;0.93;;;;;;;;;;5047676;28;20388;-64
2022/01/29 01:03:03;;;;;;;4.78;0.75;;;;;;;;;;5046754;28;20025;-64
2022/01/29 01:05:29;;;;;;;4.95;1.00;;;;;;;;;;5039968;28;20397;-64
2022/01/29 01:07:55;;;;;;;6.65;0.88;;;;;;;;;;5043267;28;20032;-64
2022/01/29 01:10:21;;;;;;;2.35;0.60;;;;;;;;;;5050832;28;20436;-64
2022/01/29 01:12:47;;;;;;;1.75;0.55;;;;;;;;;;5034916;28;20052;-64
2022/01/29 01:15:13;;;;;;;3.75;0.63;;;;;;;;;;5045057;28;20037;-64
2022/01/29 01:17:39;;;;;;;11.60;1.02;;;;;;;;;;5046866;28;20029;-64
2022/01/29 01:20:06;;;;;;;1.15;0.50;;;;;;;;;;5020482;28;20464;-64
2022/01/29 01:22:32;;;;;;;2.78;0.40;;;;;;;;;;5047664;28;20029;-64
2022/01/29 01:24:59;;;;;;;5.20;0.73;;;;;;;;;;5032063;28;20454;-64
2022/01/29 01:27:25;;;;;;;2.80;0.60;;;;;;;;;;5046752;28;20100;-64
2022/01/29 01:29:51;;;;;;;2.75;0.50;;;;;;;;;;5045812;28;20017;-64
2022/01/29 01:32:17;;;;;;;2.45;0.98;;;;;;;;;;5040950;28;20029;-64
2022/01/29 01:34:48;;;;;;;0.77;0.68;;;;;;;;;;5051257;28;20366;-64
2022/01/29 01:37:28;;;;;;;2.65;0.30;;;;;;;;;;5045516;28;20052;-64
2022/01/29 01:39:54;;;;;;;3.92;0.47;;;;;;;;;;5051617;28;20524;-64
2022/01/29 01:42:21;;;;;;;4.60;1.45;;;;;;;;;;5043007;28;20037;-64
2022/01/29 01:44:48;;;;;;;5.60;0.93;;;;;;;;;;5037932;28;20030;-64
2022/01/29 01:47:15;;;;;;;2.88;0.90;;;;;;;;;;5049597;28;20056;-64
2022/01/29 01:49:41;;;;;;;4.75;1.20;;;;;;;;;;5043376;28;20017;-64
2022/01/29 01:52:09;;;;;;;5.68;1.30;;;;;;;;;;5042057;28;20038;-64
2022/01/29 01:54:35;;;;;;;7.18;0.90;;;;;;;;;;5051049;28;20481;-64
2022/01/29 01:57:02;;;;;;;1.45;0.63;;;;;;;;;;5035424;28;20397;-64
2022/01/29 01:59:28;;;;;;;4.10;1.00;;;;;;;;;;5041988;28;20021;-64
2022/01/29 02:01:55;;;;;;;1.10;0.60;;;;;;;;;;5026040;28;20041;-64
2022/01/29 02:04:21;;;;;;;1.77;0.80;;;;;;;;;;5031734;28;20048;-64
2022/01/29 02:06:50;;;;;;;3.05;0.70;;;;;;;;;;5051967;28;20060;-64
2022/01/29 02:09:17;;;;;;;3.22;0.80;;;;;;;;;;5040109;28;20063;-64
2022/01/29 02:11:51;;;;;;;5.72;0.85;;;;;;;;;;5045439;28;20026;-64
2022/01/29 02:14:18;;;;;;;4.65;0.90;;;;;;;;;;5034968;28;20116;-64
2022/01/29 02:16:44;;;;;;;3.42;0.85;;;;;;;;;;5050716;28;20104;-64
2022/01/29 02:19:10;;;;;;;3.45;0.90;;;;;;;;;;5043885;28;20079;-64
2022/01/29 02:21:39;;;;;;;3.30;0.82;;;;;;;;;;5045806;28;20044;-64
2022/01/29 02:24:05;;;;;;;2.95;0.70;;;;;;;;;;5047667;28;20087;-64
2022/01/29 02:26:31;;;;;;;4.18;0.55;;;;;;;;;;5053836;28;20036;-64
2022/01/29 02:28:58;;;;;;;2.35;0.50;;;;;;;;;;5037273;28;20048;-64
2022/01/29 02:31:24;;;;;;;3.72;0.50;;;;;;;;;;5047101;28;20108;-64
2022/01/29 02:33:50;;;;;;;1.23;0.38;;;;;;;;;;5043753;28;20432;-64
2022/01/29 02:36:16;;;;;;;1.77;0.50;;;;;;;;;;5040288;28;20025;-64
2022/01/29 02:38:42;;;;;;;3.63;0.60;;;;;;;;;;5050242;28;20028;-64
2022/01/29 02:41:09;;;;;;;6.32;0.52;;;;;;;;;;5048935;28;20071;-64
2022/01/29 02:44:00;;;;;;;1.90;0.70;;;;;;;;;;5053437;28;20116;-64
2022/01/29 02:46:40;;;;;;;5.03;0.50;;;;;;;;;;5039373;28;20041;-64
2022/01/29 02:49:06;;;;;;;5.18;0.70;;;;;;;;;;5052722;28;20456;-64
2022/01/29 02:51:32;;;;;;;5.00;0.60;;;;;;;;;;5044263;28;20017;-64
2022/01/29 02:53:58;;;;;;;1.90;0.60;;;;;;;;;;5050693;28;20025;-64
2022/01/29 02:56:25;;;;;;;3.35;0.77;;;;;;;;;;5049954;28;20036;-64
2022/01/29 02:58:51;;;;;;;3.97;0.65;;;;;;;;;;5050052;28;20027;-64
2022/01/29 03:01:19;;;;;;;0.70;0.57;;;;;;;;;;5050509;28;20028;-64
2022/01/29 03:03:45;;;;;;;2.53;0.60;;;;;;;;;;5046108;28;20075;-64
2022/01/29 03:06:11;;;;;;;3.72;0.90;;;;;;;;;;5051050;28;20025;-64
2022/01/29 03:08:37;;;;;;;2.22;1.02;;;;;;;;;;5049511;28;20057;-64
2022/01/29 03:11:05;;;;;;;4.57;1.27;;;;;;;;;;5040510;28;20393;-64
2022/01/29 03:13:31;;;;;;;3.90;0.98;;;;;;;;;;5041511;28;20016;-64
2022/01/29 03:15:57;;;;;;;8.60;1.00;;;;;;;;;;5046627;28;20037;-64
2022/01/29 03:18:23;;;;;;;2.97;0.88;;;;;;;;;;5046314;28;20033;-64
2022/01/29 03:20:49;;;;;;;1.75;0.80;;;;;;;;;;5041046;28;20591;-64
2022/01/29 03:23:15;;;;;;;8.40;1.27;;;;;;;;;;5056468;28;20044;-64
2022/01/29 03:25:41;;;;;;;1.45;0.73;;;;;;;;;;5052787;28;20064;-64
2022/01/29 03:28:07;;;;;;;1.90;0.50;;;;;;;;;;5052644;28;20013;-64
2022/01/29 03:30:34;;;;;;;0.70;0.50;;;;;;;;;;5047736;28;20026;-64
2022/01/29 03:33:00;;;;;;;1.80;0.70;;;;;;;;;;5028545;28;20036;-64
2022/01/29 03:35:26;;;;;;;3.90;0.70;;;;;;;;;;5053447;28;20056;-64
2022/01/29 03:37:52;;;;;;;3.20;0.70;;;;;;;;;;5047097;28;20029;-64
2022/01/29 03:40:18;;;;;;;3.25;0.50;;;;;;;;;;5033737;28;20057;-64
2022/01/29 03:42:59;;;;;;;0.77;0.50;;;;;;;;;;5048555;28;20032;-64
2022/01/29 03:45:25;;;;;;;5.57;1.23;;;;;;;;;;5048014;28;20029;-64
2022/01/29 03:47:51;;;;;;;3.53;1.10;;;;;;;;;;5041913;28;20036;-64
2022/01/29 03:50:18;;;;;;;8.98;1.20;;;;;;;;;;5041001;28;20128;-64
2022/01/29 03:52:44;;;;;;;4.88;1.50;;;;;;;;;;5038438;28;20028;-64
2022/01/29 03:55:10;;;;;;;7.10;2.22;;;;;;;;;;5043260;28;20029;-64
2022/01/29 03:57:36;;;;;;;4.50;1.75;;;;;;;;;;5037437;28;20040;-64
2022/01/29 04:00:02;;;;;;;6.20;1.65;;;;;;;;;;5046449;28;20426;-64
2022/01/29 04:02:28;;;;;;;7.63;1.35;;;;;;;;;;5018026;28;20029;-64
2022/01/29 04:04:54;;;;;;;5.72;1.63;;;;;;;;;;5038825;28;20025;-64
2022/01/29 04:07:20;;;;;;;5.63;1.40;;;;;;;;;;5044443;28;20021;-64
2022/01/29 04:09:49;;;;;;;10.70;1.77;;;;;;;;;;5044438;28;20397;-64
2022/01/29 04:12:15;;;;;;;2.40;1.35;;;;;;;;;;5050009;28;20103;-64
2022/01/29 04:14:42;;;;;;;7.88;1.58;;;;;;;;;;5051281;28;20405;-64
2022/01/29 04:17:08;;;;;;;8.25;1.50;;;;;;;;;;5045826;28;20017;-64
2022/01/29 04:19:35;;;;;;;10.50;1.73;;;;;;;;;;5049197;28;20029;-64
2022/01/29 04:22:01;;;;;;;3.85;1.20;;;;;;;;;;5028617;28;20044;-64
2022/01/29 04:24:27;;;;;;;6.45;1.40;;;;;;;;;;5031530;28;20481;-64
2022/01/29 04:26:54;;;;;;;9.55;1.83;;;;;;;;;;5037732;28;20025;-64
2022/01/29 04:29:20;;;;;;;9.35;2.10;;;;;;;;;;5032407;28;20113;-64
2022/01/29 04:34:19;;;;;;;2.78;1.15;;;;;;;;;;5044992;28;20332;-64
2022/01/29 04:36:45;;;;;;;7.13;1.42;;;;;;;;;;5046044;28;20087;-64
2022/01/29 04:39:11;;;;;;;2.55;0.95;;;;;;;;;;5040898;28;20133;-64
2022/01/29 04:41:37;;;;;;;6.07;1.40;;;;;;;;;;5038959;28;20022;-64
2022/01/29 04:44:04;;;;;;;3.03;1.25;;;;;;;;;;5048076;28;20500;-64
2022/01/29 04:46:30;;;;;;;11.73;1.88;;;;;;;;;;5035575;28;20535;-64
2022/01/29 04:48:56;;;;;;;6.43;1.60;;;;;;;;;;5044485;28;20025;-64
2022/01/29 04:51:22;;;;;;;4.07;1.30;;;;;;;;;;5042475;28;20029;-64
2022/01/29 04:53:49;;;;;;;4.88;1.27;;;;;;;;;;5037357;28;20177;-64
2022/01/29 04:56:15;;;;;;;5.60;1.02;;;;;;;;;;5048077;28;20029;-64
2022/01/29 04:58:41;;;;;;;7.45;1.10;;;;;;;;;;5018828;28;20515;-64
2022/01/29 05:01:07;;;;;;;12.88;2.70;;;;;;;;;;5043060;28;20095;-64
2022/01/29 05:03:34;;;;;;;7.60;1.00;;;;;;;;;;5043865;28;20032;-64
2022/01/29 05:06:00;;;;;;;10.32;1.27;;;;;;;;;;5035963;28;20389;-64
2022/01/29 05:08:26;;;;;;;5.95;1.02;;;;;;;;;;5047521;28;20021;-64
2022/01/29 05:10:53;;;;;;;6.38;0.98;;;;;;;;;;5042925;28;20037;-64
2022/01/29 05:13:24;;;;;;;3.72;1.08;;;;;;;;;;5041126;28;20026;-64
2022/01/29 05:27:03;;;;;;;6.47;0.63;;;;;;;;;;5022275;28;20174;-64
2022/01/29 05:29:31;;;;;;;2.28;0.90;;;;;;;;;;5020634;28;20041;-64
2022/01/29 05:32:01;;;;;;;4.40;0.85;;;;;;;;;;5014429;28;20026;-64
2022/01/29 05:34:27;;;;;;;2.45;0.82;;;;;;;;;;5025356;28;20040;-64
2022/01/29 05:36:53;;;;;;;5.00;1.00;;;;;;;;;;5015394;28;20124;-64
2022/01/29 05:39:20;;;;;;;7.38;1.35;;;;;;;;;;5019282;28;20057;-64
2022/01/29 05:41:46;;;;;;;4.05;1.17;;;;;;;;;;5023020;28;20073;-64
2022/01/29 05:44:13;;;;;;;6.55;1.30;;;;;;;;;;5012516;28;20045;-64
2022/01/29 05:46:39;;;;;;;6.20;1.00;;;;;;;;;;5025184;28;20112;-64
2022/01/29 05:49:06;;;;;;;5.10;0.88;;;;;;;;;;5017224;28;20045;-64
2022/01/29 05:51:32;;;;;;;3.70;0.88;;;;;;;;;;5017523;28;20030;-64
2022/01/29 05:53:58;;;;;;;5.18;1.20;;;;;;;;;;5025910;28;20115;-64
2022/01/29 05:56:25;;;;;;;4.55;1.10;;;;;;;;;;5048572;28;20436;-64
2022/01/29 05:58:51;;;;;;;4.10;0.98;;;;;;;;;;5036836;28;20025;-64
2022/01/29 06:01:17;;;;;;;1.75;0.82;;;;;;;;;;5041805;28;20108;-64
2022/01/29 06:03:43;;;;;;;5.07;1.38;;;;;;;;;;5043949;28;20033;-64
2022/01/29 06:06:09;;;;;;;7.38;1.20;;;;;;;;;;5034343;28;20064;-64
2022/01/29 06:08:35;;;;;;;4.57;1.27;;;;;;;;;;5047451;28;20076;-64
2022/01/29 06:11:01;;;;;;;5.03;1.30;;;;;;;;;;5045301;28;20056;-64
2022/01/29 06:13:27;;;;;;;1.95;1.10;;;;;;;;;;5048571;28;20108;-64
2022/01/29 06:15:54;;;;;;;3.47;1.10;;;;;;;;;;5055654;28;20126;-64
2022/01/29 06:18:22;;;;;;;4.15;1.20;;;;;;;;;;5044539;28;20079;-64
2022/01/29 06:20:52;;;;;;;1.88;1.13;;;;;;;;;;5047064;28;20028;-64
2022/01/29 06:23:24;;;;;;;11.32;1.58;;;;;;;;;;5045331;28;20064;-64
2022/01/29 06:25:50;;;;;;;3.17;1.20;;;;;;;;;;5035670;28;20497;-64
2022/01/29 06:28:16;;;;;;;3.53;1.10;;;;;;;;;;5036851;28;20064;-64
2022/01/29 06:30:42;;;;;;;5.47;1.25;;;;;;;;;;5050253;28;20022;-64
2022/01/29 06:33:10;;;;;;;8.40;1.60;;;;;;;;;;5038494;28;20018;-64
2022/01/29 06:35:36;;;;;;;2.75;1.58;;;;;;;;;;5043559;28;20067;-64
2022/01/29 06:38:03;;;;;;;8.30;1.80;;;;;;;;;;5039450;28;20017;-64
2022/01/29 06:40:29;;;;;;;2.83;1.30;;;;;;;;;;5041019;28;20124;-64
2022/01/29 06:42:56;;;;;;;3.95;1.55;;;;;;;;;;5055674;28;20539;-64
2022/01/29 06:45:22;;;;;;;5.13;1.60;;;;;;;;;;5052880;28;20029;-64
2022/01/29 06:47:49;;;;;;;5.72;1.40;;;;;;;;;;5049498;28;20033;-64
2022/01/29 06:50:15;;;;;;;2.38;1.17;;;;;;;;;;5053094;28;20516;-64
2022/01/29 06:52:41;;;;;;;6.32;1.30;;;;;;;;;;5058748;28;20021;-64
2022/01/29 06:55:07;;;;;;;3.78;1.30;;;;;;;;;;5044143;28;20028;-64
2022/01/29 06:57:33;;;;;;;4.13;1.13;;;;;;;;;;5034632;28;20029;-64
2022/01/29 06:59:59;;;;;;;5.57;1.15;;;;;;;;;;5045180;28;20025;-65
2022/01/29 07:02:26;;;;;;;6.03;1.20;;;;;;;;;;5052883;28;20096;-64
2022/01/29 07:04:52;;;;;;;3.85;1.20;;;;;;;;;;5042411;28;20485;-64
2022/01/29 07:07:18;;;;;;;3.45;0.90;;;;;;;;;;5040489;28;20033;-64
2022/01/29 07:09:44;;;;;;;3.58;0.77;;;;;;;;;;5049728;28;20028;-64
2022/01/29 07:12:12;;;;;;;7.80;2.38;;;;;;;;;;5021992;28;20044;-64
2022/01/29 07:14:39;;;;;;;1.95;0.80;;;;;;;;;;5046270;28;20470;-64
2022/01/29 07:17:17;;;;;;;3.60;1.00;;;;;;;;;;5051838;28;20025;-64
2022/01/29 07:19:44;;;;;;;3.03;0.90;;;;;;;;;;5045519;28;20037;-64
2022/01/29 07:22:10;;;;;;;6.90;1.23;;;;;;;;;;5047231;28;20040;-64
2022/01/29 07:24:36;;;;;;;6.43;0.93;;;;;;;;;;5050018;28;20033;-63
2022/01/29 07:27:03;;;;;;;3.20;1.05;;;;;;;;;;5049057;28;20119;-64
2022/01/29 07:29:29;;;;;;;4.10;1.27;;;;;;;;;;5044862;28;20033;-64
2022/01/29 07:31:58;;;;;;;4.63;1.40;;;;;;;;;;5042059;28;20052;-64
2022/01/29 07:34:25;;;;;;;3.20;0.90;;;;;;;;;;5046558;28;20033;-64
2022/01/29 07:36:51;;;;;;;6.10;0.93;;;;;;;;;;5052308;28;20029;-64
2022/01/29 07:39:18;;;;;;;3.20;1.08;;;;;;;;;;5052930;28;20102;-64
2022/01/29 07:41:44;;;;;;;6.60;1.48;;;;;;;;;;5052604;28;20424;-64
2022/01/29 07:44:10;;;;;;;6.15;1.70;;;;;;;;;;5033741;28;20037;-64
2022/01/29 07:46:36;;;;;;;5.72;1.65;;;;;;;;;;5050841;28;20028;-64
2022/01/29 07:49:03;;;;;;;4.55;2.20;;;;;;;;;;5052050;28;20036;-64
2022/01/29 07:51:29;;;;;;;1.52;1.25;;;;;;;;;;5049310;28;20075;-64
2022/01/29 07:53:55;;;;;;;6.20;1.33;;;;;;;;;;5051367;28;20767;-64
2022/01/29 07:56:21;;;;;;;3.42;1.27;;;;;;;;;;5052202;28;20032;-64
2022/01/29 07:58:48;;;;;;;5.18;1.80;;;;;;;;;;5048719;28;20040;-64
2022/01/29 08:01:14;;;;;;;2.85;1.60;;;;;;;;;;5049603;28;20026;-64
2022/01/29 08:03:42;;;;;;;4.43;1.52;;;;;;;;;;5049044;28;20036;-64
2022/01/29 08:06:08;;;;;;;2.03;1.40;;;;;;;;;;5051979;28;20068;-64
2022/01/29 08:08:34;;;;;;;6.47;1.30;;;;;;;;;;5034728;28;20033;-64
2022/01/29 08:11:00;;;;;;;6.00;1.33;;;;;;;;;;5048850;28;20033;-64
2022/01/29 08:13:27;;;;;;;4.30;1.00;;;;;;;;;;5049240;28;20029;-64
2022/01/29 08:15:53;;;;;;;4.03;1.20;;;;;;;;;;5047174;28;20028;-64
2022/01/29 08:18:19;;;;;;;5.20;0.95;;;;;;;;;;5048388;28;20029;-64
2022/01/29 08:20:45;;;;;;;2.33;1.15;;;;;;;;;;5051598;28;20021;-64
2022/01/29 08:23:11;;;;;;;1.52;0.80;;;;;;;;;;5047308;28;20461;-64
2022/01/29 08:25:37;;;;;;;4.20;1.48;;;;;;;;;;5046159;28;20025;-64
2022/01/29 08:28:04;;;;;;;6.32;2.63;;;;;;;;;;5050685;28;20017;-64
2022/01/29 08:30:30;;;;;;;5.15;1.33;;;;;;;;;;5051907;28;20207;-64
2022/01/29 08:32:56;;;;;;;6.00;1.20;;;;;;;;;;5051802;28;20063;-64
2022/01/29 08:35:23;;;;;;;4.50;1.30;;;;;;;;;;5048358;28;20111;-64
2022/01/29 08:37:49;;;;;;;5.82;1.00;;;;;;;;;;5050732;28;20032;-64
2022/01/29 08:40:15;;;;;;;6.28;1.50;;;;;;;;;;5047211;28;20077;-64
2022/01/29 08:42:41;;;;;;;6.57;2.00;;;;;;;;;;5047989;28;20025;-64
2022/01/29 08:45:08;;;;;;;4.75;1.52;;;;;;;;;;5046795;28;20029;-64
2022/01/29 08:47:34;;;;;;;2.63;1.20;;;;;;;;;;5048939;28;20479;-64
2022/01/29 08:50:03;;;;;;;4.32;1.80;;;;;;;;;;5048030;28;20013;-64
2022/01/29 08:52:29;;;;;;;2.92;1.60;;;;;;;;;;5044823;28;20018;-64
2022/01/29 08:54:55;;;;;;;3.83;1.75;;;;;;;;;;5043745;28;20481;-64
2022/01/29 08:57:21;;;;;;;7.10;1.95;;;;;;;;;;5048824;28;20386;-64
2022/01/29 08:59:47;;;;;;;7.78;1.67;;;;;;;;;;5049429;28;20039;-64
2022/01/29 09:02:13;;;;;;;7.00;1.88;;;;;;;;;;5046169;28;20159;-64
2022/01/29 09:04:39;;;;;;;6.95;1.40;;;;;;;;;;5046647;28;20036;-64
2022/01/29 09:07:06;;;;;;;11.95;1.63;;;;;;;;;;5050232;28;20036;-64
2022/01/29 09:09:32;;;;;;;4.50;1.45;;;;;;;;;;5047370;28;20052;-64
2022/01/29 09:11:59;;;;;;;5.88;1.15;;;;;;;;;;5047373;28;20411;-64
2022/01/29 09:14:25;;;;;;;3.67;1.10;;;;;;;;;;5050168;28;20100;-64
2022/01/29 09:16:51;;;;;;;4.50;1.13;;;;;;;;;;5047870;28;20031;-64
2022/01/29 09:19:17;;;;;;;8.13;1.42;;;;;;;;;;5051244;28;20104;-64
2022/01/29 09:21:43;;;;;;;5.28;1.27;;;;;;;;;;5049667;28;20021;-64
2022/01/29 09:24:09;;;;;;;5.85;1.45;;;;;;;;;;5045802;28;20066;-64
2022/01/29 09:26:35;;;;;;;3.83;1.48;;;;;;;;;;5047876;28;20036;-64
2022/01/29 09:29:01;;;;;;;6.32;1.52;;;;;;;;;;5045473;28;20036;-64
2022/01/29 09:31:28;;;;;;;3.90;1.23;;;;;;;;;;5050244;28;20027;-64
2022/01/29 09:33:54;;;;;;;6.80;1.55;;;;;;;;;;5024569;28;20040;-64
2022/01/29 09:36:21;;;;;;;7.35;1.70;;;;;;;;;;5049165;28;20037;-64
2022/01/29 09:38:48;;;;;;;8.38;1.52;;;;;;;;;;5041904;28;20447;-64
2022/01/29 09:41:15;;;;;;;9.05;1.40;;;;;;;;;;5037874;28;20033;-64
2022/01/29 09:43:43;;;;;;;4.50;1.15;;;;;;;;;;5052216;28;20120;-64
2022/01/29 09:46:10;;;;;;;8.20;1.40;;;;;;;;;;5059007;28;20070;-64
2022/01/29 09:48:37;;;;;;;6.45;1.50;;;;;;;;;;5057608;28;20083;-64
2022/01/29 09:51:05;;;;;;;7.25;1.80;;;;;;;;;;5045896;28;20079;-64
2022/01/29 09:53:31;;;;;;;6.50;2.78;;;;;;;;;;5043644;28;20063;-64
2022/01/29 09:55:57;;;;;;;5.05;1.30;;;;;;;;;;5052491;28;20500;-64
2022/01/29 09:58:23;;;;;;;7.18;1.23;;;;;;;;;;5049880;28;20029;-64
2022/01/29 10:00:49;;;;;;;10.40;2.72;;;;;;;;;;5043334;28;20047;-64
2022/01/29 10:03:17;;;;;;;7.50;1.95;;;;;;;;;;5049337;28;20047;-64
2022/01/29 10:05:52;;;;;;;7.10;2.72;;;;;;;;;;5056138;28;20025;-64
2022/01/29 10:08:19;;;;;;;9.13;2.58;;;;;;;;;;5050258;28;20039;-64
2022/01/29 10:10:47;;;;;;;14.00;2.47;;;;;;;;;;5047543;28;20112;-64
2022/01/29 10:13:32;;;;;;;5.40;1.65;;;;;;;;;;5050918;28;20037;-64
2022/01/29 10:16:04;;;;;;;5.13;1.73;;;;;;;;;;5054784;28;20040;-64
2022/01/29 10:18:31;;;;;;;5.55;1.50;;;;;;;;;;5049730;28;20033;-64
2022/01/29 10:21:14;;;;;;;7.47;1.42;;;;;;;;;;5045096;28;20116;-64
2022/01/29 10:23:41;;;;;;;5.13;1.02;;;;;;;;;;5045204;28;20025;-64
2022/01/29 10:26:09;;;;;;;3.53;0.82;;;;;;;;;;5045827;28;20116;-64
2022/01/29 10:28:36;;;;;;;5.22;1.00;;;;;;;;;;5050647;28;20764;-64
2022/01/29 10:31:03;;;;;;;4.55;0.98;;;;;;;;;;5042837;28;20025;-64
2022/01/29 10:33:31;;;;;;;5.28;0.85;;;;;;;;;;5053820;28;20113;-64
2022/01/29 10:35:58;;;;;;;4.15;1.20;;;;;;;;;;5049313;28;20028;-64
2022/01/29 10:38:27;;;;;;;5.75;0.88;;;;;;;;;;5046791;28;20554;-64
2022/01/29 10:41:09;;;;;;;5.53;0.90;;;;;;;;;;5040797;28;20144;-64
2022/01/29 10:43:36;;;;;;;2.95;1.08;;;;;;;;;;5042345;28;20030;-64
2022/01/29 10:46:02;;;;;;;6.60;0.73;;;;;;;;;;5017599;28;20030;-64
2022/01/29 10:48:44;;;;;;;4.80;1.25;;;;;;;;;;5037240;28;20026;-64
2022/01/29 10:51:13;;;;;;;4.63;2.65;;;;;;;;;;5045727;28;20398;-63
2022/01/29 10:53:39;;;;;;;2.95;1.30;;;;;;;;;;5045554;28;20029;-64
2022/01/29 10:56:06;;;;;;;4.03;1.92;;;;;;;;;;5047333;28;20053;-64
2022/01/29 10:58:42;;;;;;;3.97;0.63;;;;;;;;;;5048758;28;20026;-64
2022/01/29 11:01:13;;;;;;;5.78;1.05;;;;;;;;;;5050803;28;20116;-64
2022/01/29 11:03:39;;;;;;;5.40;0.90;;;;;;;;;;5050454;28;20382;-64
2022/01/29 11:06:08;;;;;;;9.10;1.15;;;;;;;;;;5044445;28;20078;-64
2022/01/29 11:08:35;;;;;;;3.63;1.00;;;;;;;;;;5041997;28;20116;-64
2022/01/29 11:11:01;;;;;;;10.85;1.27;;;;;;;;;;5039725;28;20455;-64
2022/01/29 11:13:28;;;;;;;6.85;1.23;;;;;;;;;;5046728;28;20017;-64
2022/01/29 11:15:56;;;;;;;5.68;1.58;;;;;;;;;;5049359;28;20513;-64
2022/01/29 11:18:24;;;;;;;8.77;1.88;;;;;;;;;;5034807;28;20056;-64
2022/01/29 11:20:51;;;;;;;8.70;1.58;;;;;;;;;;5051042;28;20529;-64
2022/01/29 11:23:17;;;;;;;5.90;1.85;;;;;;;;;;5044498;28;20466;-64
2022/01/29 11:25:43;;;;;;;7.95;1.77;;;;;;;;;;5039622;28;20029;-64
2022/01/29 11:28:20;;;;;;;4.82;1.45;;;;;;;;;;5048053;28;20407;-64
2022/01/29 11:30:47;;;;;;;8.90;1.50;;;;;;;;;;5049368;28;20033;-64
2022/01/29 11:33:13;;;;;;;3.70;1.08;;;;;;;;;;5050278;28;20104;-64
2022/01/29 11:35:54;;;;;;;3.60;1.10;;;;;;;;;;5047799;28;20473;-64
2022/01/29 11:38:28;;;;;;;4.90;1.17;;;;;;;;;;5048948;28;20033;-64
2022/01/29 11:41:02;;;;;;;10.20;1.10;;;;;;;;;;5052101;28;20163;-64
2022/01/29 11:43:29;;;;;;;4.43;1.00;;;;;;;;;;5052213;28;20037;-64
2022/01/29 11:46:10;;;;;;;9.07;0.98;;;;;;;;;;5046213;28;20025;-64
2022/01/29 11:48:49;;;;;;;2.95;1.00;;;;;;;;;;5047752;28;20064;-64
2022/01/29 11:51:15;;;;;;;4.53;1.02;;;;;;;;;;5044513;28;20021;-64
2022/01/29 11:54:02;;;;;;;2.30;0.98;;;;;;;;;;5045195;28;20025;-64
2022/01/29 11:56:28;;;;;;;7.88;1.35;;;;;;;;;;5049891;28;20028;-65
2022/01/29 11:59:13;;;;;;;9.80;1.60;;;;;;;;;;5034623;28;20036;-64
2022/01/29 12:01:39;;;;;;;7.47;1.70;;;;;;;;;;5048871;28;20637;-64
2022/01/29 12:04:05;;;;;;;10.85;2.10;;;;;;;;;;5047357;28;20025;-64
2022/01/29 12:06:34;;;;;;;4.38;1.17;;;;;;;;;;5049136;28;20472;-64
2022/01/29 12:09:05;;;;;;;7.40;1.50;;;;;;;;;;5043495;28;20079;-64
2022/01/29 12:11:35;;;;;;;7.10;1.67;;;;;;;;;;5045133;28;20028;-64
2022/01/29 12:14:13;;;;;;;9.73;1.48;;;;;;;;;;5047369;28;20074;-64
2022/01/29 12:16:51;;;;;;;5.78;1.27;;;;;;;;;;5045107;28;20028;-64
2022/01/29 12:19:37;;;;;;;3.72;1.90;;;;;;;;;;5045472;28;20029;-64
2022/01/29 12:22:13;;;;;;;3.55;1.27;;;;;;;;;;5038889;28;20041;-64
2022/01/29 12:24:40;;;;;;;5.32;1.17;;;;;;;;;;5044825;28;20057;-64
2022/01/29 12:27:07;;;;;;;6.45;1.20;;;;;;;;;;5020028;28;20482;-64
2022/01/29 12:29:33;;;;;;;7.43;1.50;;;;;;;;;;5045701;28;20017;-64
2022/01/29 12:32:00;;;;;;;5.78;1.45;;;;;;;;;;5039641;28;20055;-64
2022/01/29 12:34:27;;;;;;;3.58;1.30;;;;;;;;;;5048276;28;20115;-64
2022/01/29 12:37:13;;;;;;;11.35;2.85;;;;;;;;;;5044975;28;20126;-64
2022/01/29 12:39:41;;;;;;;13.20;4.10;;;;;;;;;;5041869;28;20111;-64
2022/01/29 12:44:44;;;;;;;10.00;2.70;;;;;;;;;;5029844;28;20403;-64
2022/01/29 12:47:24;;;;;;;12.93;2.63;;;;;;;;;;5045524;28;20025;-64
2022/01/29 12:49:50;;;;;;;9.77;2.30;;;;;;;;;;5052196;28;20112;-64
2022/01/29 12:52:17;;;;;;;9.30;2.15;;;;;;;;;;5033501;28;20074;-64
2022/01/29 12:54:53;;;;;;;5.78;2.60;;;;;;;;;;5046939;28;20021;-64
2022/01/29 12:57:19;;;;;;;12.00;2.25;;;;;;;;;;5049558;28;20020;-64
2022/01/29 12:59:45;;;;;;;6.72;2.10;;;;;;;;;;5030834;28;20047;-64
2022/01/29 13:02:11;;;;;;;7.10;2.10;;;;;;;;;;5047152;28;20409;-64
2022/01/29 13:04:38;;;;;;;12.02;1.98;;;;;;;;;;5046213;28;20024;-64
2022/01/29 13:07:05;;;;;;;7.05;1.60;;;;;;;;;;5050209;28;20033;-64
2022/01/29 13:09:36;;;;;;;8.77;1.65;;;;;;;;;;5048520;28;20032;-64
2022/01/29 13:12:11;;;;;;;14.50;2.13;;;;;;;;;;5046594;28;20033;-64
2022/01/29 13:14:38;;;;;;;8.43;1.65;;;;;;;;;;5046759;28;20025;-64
2022/01/29 13:17:08;;;;;;;8.70;1.90;;;;;;;;;;5048171;28;20036;-64
2022/01/29 13:19:35;;;;;;;8.90;1.85;;;;;;;;;;5046477;28;20036;-64
2022/01/29 13:22:02;;;;;;;10.75;2.30;;;;;;;;;;5052578;28;20036;-64
2022/01/29 13:24:37;;;;;;;10.15;1.70;;;;;;;;;;5049983;28;20029;-64
2022/01/29 13:27:09;;;;;;;14.50;3.97;;;;;;;;;;5053143;28;20280;-64
2022/01/29 13:29:58;;;;;;;8.60;2.53;;;;;;;;;;5053247;28;20021;-64
2022/01/29 13:32:38;;;;;;;7.93;1.80;;;;;;;;;;5035804;28;20044;-64
2022/01/29 13:35:23;;;;;;;9.23;2.22;;;;;;;;;;5052546;28;20031;-64
2022/01/29 13:37:50;;;;;;;8.15;1.83;;;;;;;;;;5036265;28;20032;-64
2022/01/29 13:40:20;;;;;;;18.30;3.33;;;;;;;;;;5053645;28;20056;-64
2022/01/29 13:42:53;;;;;;;5.80;1.80;;;;;;;;;;5053826;28;20029;-64
2022/01/29 13:45:22;;;;;;;7.28;1.80;;;;;;;;;;5053003;28;20108;-64
2022/01/29 13:48:10;;;;;;;13.40;3.13;;;;;;;;;;5053759;28;20027;-64
2022/01/29 13:50:38;;;;;;;11.73;2.60;;;;;;;;;;5049843;28;20063;-64
2022/01/29 13:53:04;;;;;;;12.27;2.03;;;;;;;;;;5052488;28;20447;-64
2022/01/29 13:55:31;;;;;;;11.95;2.13;;;;;;;;;;5053370;28;20128;-64
2022/01/29 13:57:58;;;;;;;10.45;3.50;;;;;;;;;;5053543;28;20025;-64
2022/01/29 14:00:24;;;;;;;11.15;2.63;;;;;;;;;;5054694;28;20048;-64
2022/01/29 14:02:52;;;;;;;12.93;3.00;;;;;;;;;;5052745;28;20033;-64
2022/01/29 14:05:26;;;;;;;17.42;3.00;;;;;;;;;;5045764;28;20037;-64
2022/01/29 14:07:52;;;;;;;10.07;1.83;;;;;;;;;;5053046;28;20481;-64
2022/01/29 14:10:19;;;;;;;5.32;1.85;;;;;;;;;;5053370;28;20104;-64
2022/01/29 14:12:48;;;;;;;10.27;3.17;;;;;;;;;;5053295;28;20028;-64
2022/01/29 14:15:15;;;;;;;9.63;2.28;;;;;;;;;;5051074;28;20551;-64
2022/01/29 14:17:42;;;;;;;11.35;2.45;;;;;;;;;;5052908;28;20036;-64
2022/01/29 14:20:19;;;;;;;9.40;2.30;;;;;;;;;;5052930;28;20032;-64
2022/01/29 14:22:45;;;;;;;9.80;2.42;;;;;;;;;;5053242;28;20064;-64
2022/01/29 14:25:14;;;;;;;12.80;2.42;;;;;;;;;;5051264;28;20017;-64
2022/01/29 14:27:40;;;;;;;15.15;2.38;;;;;;;;;;5053124;28;20018;-64
2022/01/29 14:30:07;;;;;;;9.40;2.67;;;;;;;;;;5052995;28;20103;-64
2022/01/29 14:32:33;;;;;;;10.95;2.05;;;;;;;;;;5051654;28;20112;-64
2022/01/29 14:35:00;;;;;;;9.60;2.60;;;;;;;;;;5050672;28;20025;-64
2022/01/29 14:37:26;;;;;;;10.85;2.20;;;;;;;;;;5033015;28;20032;-64
2022/01/29 14:39:52;;;;;;;14.30;2.25;;;;;;;;;;5050014;28;20412;-64
2022/01/29 14:42:26;;;;;;;9.13;2.40;;;;;;;;;;5049134;28;20025;-64
2022/01/29 14:44:53;;;;;;;14.35;2.35;;;;;;;;;;5051650;28;20040;-64
2022/01/29 14:47:20;;;;;;;16.02;3.30;;;;;;;;;;5044597;28;20036;-64
2022/01/29 14:49:47;;;;;;;14.38;2.60;;;;;;;;;;5027612;28;20424;-64
2022/01/29 14:52:14;;;;;;;11.75;2.40;;;;;;;;;;5047622;28;20104;-74
2022/01/29 14:54:41;;;;;;;12.10;2.30;;;;;;;;;;5047579;28;20021;-64
2022/01/29 14:57:07;;;;;;;7.80;1.55;;;;;;;;;;5042212;28;20072;-64
2022/01/29 14:59:33;;;;;;;15.23;2.33;;;;;;;;;;5050436;28;20025;-64
2022/01/29 15:01:59;;;;;;;6.63;2.17;;;;;;;;;;5043380;28;20040;-64